createdAt,value
2023-06-02T08:50:21.460Z,23.7
2023-06-02T08:51:51.642Z,23.8
2023-06-02T08:53:21.796Z,24.2
2023-06-02T08:54:51.954Z,24.5
2023-06-02T08:56:22.190Z,25
2023-06-02T08:57:52.292Z,25.3
2023-06-02T08:59:22.454Z,25.6
2023-06-02T09:00:52.640Z,25.8
2023-06-02T09:02:22.870Z,26
2023-06-02T09:03:53.014Z,26.2
2023-06-02T09:05:23.139Z,26.2
2023-06-02T09:06:53.341Z,26.3
2023-06-02T09:08:23.502Z,26.3
2023-06-02T09:09:54.724Z,26.3
2023-06-02T09:11:23.882Z,26.3
2023-06-02T09:12:54.058Z,26.4
2023-06-02T09:14:24.217Z,26.4
2023-06-02T09:15:54.432Z,26.4
2023-06-02T09:17:24.571Z,26.4
2023-06-02T09:18:54.725Z,26.4
2023-06-02T09:20:24.923Z,26.4
2023-06-02T09:21:55.148Z,26.4
2023-06-02T09:23:25.269Z,26.4
2023-06-02T09:24:55.447Z,26.5
2023-06-02T09:26:25.837Z,26.4
2023-06-02T09:27:55.785Z,26.4
2023-06-02T09:29:25.963Z,26.5
2023-06-02T09:30:56.142Z,26.5
2023-06-02T09:32:26.391Z,26.5
2023-06-02T09:33:56.476Z,26.6
2023-06-02T09:35:26.655Z,26.7
2023-06-02T09:36:56.812Z,26.6
2023-06-02T09:38:26.989Z,26.5
2023-06-02T09:39:57.171Z,26.6
2023-06-02T09:41:27.330Z,26.6
2023-06-02T09:42:57.507Z,26.3
2023-06-02T09:44:27.686Z,26.3
2023-06-02T09:45:57.917Z,26.1
2023-06-02T09:47:28.184Z,26
2023-06-02T09:48:58.252Z,25.9
2023-06-02T09:50:28.354Z,25.8
2023-06-02T09:51:58.518Z,25.7
2023-06-02T09:53:28.704Z,25.6
2023-06-02T09:54:58.853Z,25.7
2023-06-02T09:56:29.008Z,25.7
2023-06-02T09:57:59.196Z,25.6
2023-06-02T09:59:29.355Z,25.7
2023-06-02T10:00:59.518Z,25.7
2023-06-02T10:02:29.821Z,25.7
2023-06-02T10:03:59.858Z,25.7
2023-06-02T10:05:30.005Z,25.7
2023-06-02T10:07:00.341Z,25.7
2023-06-02T10:08:31.548Z,25.7
2023-06-02T10:10:00.817Z,25.7
2023-06-02T10:11:30.987Z,25.7
2023-06-02T10:13:01.149Z,25.7
2023-06-02T10:14:31.309Z,25.7
2023-06-02T10:16:01.520Z,25.7
2023-06-02T10:17:31.715Z,25.8
2023-06-02T10:19:01.844Z,25.7
2023-06-02T10:20:32.288Z,25.7
2023-06-02T10:22:02.282Z,25.5
2023-06-02T10:23:32.469Z,25.6
2023-06-02T10:25:02.563Z,25.7
2023-06-02T10:26:32.734Z,25.8
2023-06-02T10:28:02.908Z,25.8
2023-06-02T10:29:33.056Z,25.9
2023-06-02T10:31:03.429Z,25.9
2023-06-02T10:32:33.458Z,25.9
2023-06-02T10:34:03.592Z,25.9
2023-06-02T10:35:33.792Z,26
2023-06-02T10:37:03.948Z,26.2
2023-06-02T10:38:34.112Z,26.3
2023-06-02T10:40:04.291Z,26.4
2023-06-02T10:41:34.447Z,26.5
2023-06-02T10:43:04.602Z,26.6
2023-06-02T10:44:34.790Z,26.7
2023-06-02T10:46:04.936Z,26.7
2023-06-02T10:47:35.127Z,26.7
2023-06-02T10:49:05.277Z,26.7
2023-06-02T10:50:35.438Z,26.7
2023-06-02T10:52:05.609Z,26.7
2023-06-02T10:53:35.787Z,26.7
2023-06-02T10:55:05.979Z,26.7
2023-06-02T10:56:36.155Z,26.8
2023-06-02T10:58:06.325Z,26.8
2023-06-02T10:59:36.502Z,26.7
2023-06-02T11:01:06.935Z,26.7
2023-06-02T11:02:36.864Z,26.7
2023-06-02T11:04:07.061Z,27
2023-06-02T11:05:37.186Z,26.7
2023-06-02T11:07:07.354Z,26.8
2023-06-02T11:08:37.532Z,26.8
2023-06-02T11:10:07.691Z,26.8
2023-06-02T11:11:37.865Z,26.8
2023-06-02T11:13:08.043Z,26.8
2023-06-02T11:14:38.210Z,26.8
2023-06-02T11:16:08.364Z,26.7
2023-06-02T11:17:38.653Z,26.7
2023-06-02T11:19:08.716Z,26.8
2023-06-02T11:20:38.871Z,26.8
2023-06-02T11:22:09.083Z,26.8
2023-06-02T11:23:39.201Z,27
2023-06-02T11:25:09.366Z,26.8
2023-06-02T11:26:40.296Z,26.5
2023-06-02T11:28:09.713Z,26.8
2023-06-02T11:29:39.865Z,26.8
2023-06-02T11:31:10.059Z,26.8
2023-06-02T11:32:40.201Z,26.8
2023-06-02T11:34:10.342Z,26.8
2023-06-02T11:35:40.523Z,26.9
2023-06-02T11:37:10.692Z,26.9
2023-06-02T11:38:40.886Z,26.9
2023-06-02T11:40:11.055Z,26.9
2023-06-02T11:41:41.228Z,26.9
2023-06-02T11:43:11.398Z,26.9
2023-06-02T11:44:41.574Z,26.9
2023-06-02T11:46:11.772Z,26.7
2023-06-02T11:47:41.936Z,26.9
2023-06-02T11:49:12.255Z,26.9
2023-06-02T11:50:42.270Z,26.9
2023-06-02T11:52:12.445Z,26.9
2023-06-02T11:53:42.595Z,27
2023-06-02T11:55:12.968Z,27
2023-06-02T11:56:43.019Z,27
2023-06-02T11:58:13.176Z,27
2023-06-02T11:59:43.354Z,27
2023-06-02T12:01:13.512Z,27
2023-06-02T12:02:43.737Z,27
2023-06-02T12:04:13.899Z,27
2023-06-02T12:05:44.013Z,27
2023-06-02T12:07:14.163Z,27
2023-06-02T12:08:44.354Z,27
2023-06-02T12:10:21.076Z,27
2023-06-02T12:11:44.691Z,27
2023-06-02T12:13:14.862Z,27
2023-06-02T12:14:45.015Z,27.1
2023-06-02T12:16:15.993Z,26.9
2023-06-02T12:17:45.368Z,26.6
2023-06-02T12:19:15.563Z,26.8
2023-06-02T12:20:45.689Z,26.8
2023-06-02T12:22:16.143Z,26.8
2023-06-02T12:23:46.065Z,26.8
2023-06-02T12:25:16.207Z,26.8
2023-06-02T12:26:46.385Z,26.9
2023-06-02T12:28:16.568Z,26.9
2023-06-02T12:29:46.722Z,26.9
2023-06-02T12:31:16.926Z,26.9
2023-06-02T12:32:47.150Z,26.9
2023-06-02T12:34:17.222Z,27.1
2023-06-02T12:35:47.376Z,27
2023-06-02T12:37:17.555Z,26.9
2023-06-02T12:38:47.712Z,26.9
2023-06-02T12:40:17.865Z,26.7
2023-06-02T12:41:48.037Z,26.8
2023-06-02T12:43:18.217Z,26.8
2023-06-02T12:44:48.350Z,26.7
2023-06-02T12:46:18.571Z,26.7
2023-06-02T12:47:48.727Z,26.7
2023-06-02T12:49:18.865Z,26.8
2023-06-02T12:50:49.042Z,26.8
2023-06-02T12:52:19.195Z,26.8
2023-06-02T12:53:49.361Z,26.8
2023-06-02T12:55:19.565Z,26.8
2023-06-02T12:56:49.695Z,26.8
2023-06-02T12:58:19.915Z,26.9
2023-06-02T12:59:50.033Z,26.9
2023-06-02T13:01:20.451Z,26.8
2023-06-02T13:02:50.959Z,26.9
2023-06-02T13:04:21.392Z,26.8
2023-06-02T13:05:51.710Z,26.9
2023-06-02T13:07:22.087Z,26.8
2023-06-02T13:08:52.362Z,26.9
2023-06-02T13:10:22.535Z,26.9
2023-06-02T13:11:53.525Z,26.9
2023-06-02T13:13:22.850Z,26.8
2023-06-02T13:14:53.024Z,26.8
2023-06-02T13:16:23.254Z,26.8
2023-06-02T13:17:53.378Z,26.7
2023-06-02T13:19:23.530Z,26.7
2023-06-02T13:20:53.737Z,26.7
2023-06-02T13:22:24.591Z,26.8
2023-06-02T13:23:54.194Z,26.9
2023-06-02T13:25:24.405Z,26.8
2023-06-02T13:26:54.446Z,26.9
2023-06-02T13:28:24.644Z,26.8
2023-06-02T13:29:54.809Z,26.8
2023-06-02T13:31:25.031Z,26.8
2023-06-02T13:32:55.172Z,26.8
2023-06-02T13:34:25.306Z,26.8
2023-06-02T13:35:55.461Z,26.8
2023-06-02T13:37:25.649Z,26.9
2023-06-02T13:38:55.819Z,27
2023-06-02T13:40:25.974Z,26.8
2023-06-02T13:41:56.160Z,26.8
2023-06-02T13:43:26.312Z,26.8
2023-06-02T13:44:56.479Z,26.8
2023-06-02T13:46:26.708Z,26.7
2023-06-02T13:47:56.931Z,26.8
2023-06-02T13:49:27.034Z,26.9
2023-06-02T13:50:57.214Z,26.9
2023-06-02T13:52:27.392Z,26.9
2023-06-02T13:53:57.551Z,26.9
2023-06-02T13:55:27.716Z,26.9
2023-06-02T13:56:57.886Z,26.9
2023-06-02T13:58:28.048Z,26.6
2023-06-02T13:59:58.211Z,26.9
2023-06-02T14:01:28.426Z,26.4
2023-06-02T14:02:58.594Z,26.9
2023-06-02T14:04:28.700Z,26.9
2023-06-02T14:05:58.886Z,26.9
2023-06-02T14:07:29.036Z,26.9
2023-06-02T14:08:59.208Z,26.8
2023-06-02T14:10:29.372Z,26.7
2023-06-02T14:11:59.524Z,26.7
2023-06-02T14:13:29.678Z,26.7
2023-06-02T14:14:59.861Z,26.8
2023-06-02T14:16:30.079Z,26.8
2023-06-02T14:18:00.286Z,26.7
2023-06-02T14:19:30.368Z,26.8
2023-06-02T14:21:00.520Z,26.8
2023-06-02T14:22:30.680Z,26.8
2023-06-02T14:24:00.861Z,26.8
2023-06-02T14:25:31.020Z,26.8
2023-06-02T14:27:01.181Z,26.8
2023-06-02T14:28:31.353Z,26.7
2023-06-02T14:30:01.529Z,26.8
2023-06-02T14:31:31.728Z,26.7
2023-06-02T14:33:01.915Z,26.8
2023-06-02T14:34:32.020Z,26.8
2023-06-02T14:36:02.424Z,26.7
2023-06-02T14:37:32.350Z,26.7
2023-06-02T14:39:02.528Z,26.8
2023-06-02T14:40:32.681Z,26.8
2023-06-02T14:42:02.838Z,26.7
2023-06-02T14:43:33.012Z,26.8
2023-06-02T14:45:03.168Z,26.6
2023-06-02T14:46:33.362Z,26.7
2023-06-02T14:48:03.583Z,26.7
2023-06-02T14:49:33.672Z,26.7
2023-06-02T14:51:03.834Z,26.7
2023-06-02T14:52:34.082Z,27
2023-06-02T14:54:04.229Z,26.7
2023-06-02T14:55:34.445Z,26.7
2023-06-02T14:57:04.561Z,26.7
2023-06-02T14:58:34.725Z,26.7
2023-06-02T15:00:04.882Z,26.6
2023-06-02T15:01:35.112Z,26.6
2023-06-02T15:03:05.305Z,26.8
2023-06-02T15:04:35.393Z,26.7
2023-06-02T15:06:05.787Z,26.7
2023-06-02T15:07:35.734Z,26.7
2023-06-02T15:09:05.898Z,26.8
2023-06-02T15:10:36.079Z,26.8
2023-06-02T15:12:06.238Z,26.9
2023-06-02T15:13:36.425Z,26.7
2023-06-02T15:15:06.603Z,26.7
2023-06-02T15:16:36.866Z,26.7
2023-06-02T15:18:06.924Z,26.7
2023-06-02T15:19:37.105Z,26.7
2023-06-02T15:21:07.267Z,26.7
2023-06-02T15:22:37.425Z,26.7
2023-06-02T15:24:07.601Z,26.7
2023-06-02T15:25:37.785Z,26.7
2023-06-02T15:27:07.938Z,26.7
2023-06-02T15:28:38.118Z,26.7
2023-06-02T15:30:08.305Z,26.7
2023-06-02T15:31:38.540Z,26.7
2023-06-02T15:33:08.639Z,26.7
2023-06-02T15:34:38.794Z,26.7
2023-06-02T15:36:08.954Z,26.8
2023-06-02T15:37:39.105Z,26.7
2023-06-02T15:39:09.291Z,26.7
2023-06-02T15:40:39.437Z,26.6
2023-06-02T15:42:09.591Z,26.6
2023-06-02T15:43:39.768Z,26.6
2023-06-02T15:45:09.925Z,26.6
2023-06-02T15:46:40.096Z,26.7
2023-06-02T15:48:10.307Z,26.7
2023-06-02T15:49:40.422Z,26.6
2023-06-02T15:51:10.583Z,26.6
2023-06-02T15:52:40.762Z,26.6
2023-06-02T15:54:10.948Z,26.6
2023-06-02T15:55:41.104Z,26.6
2023-06-02T15:57:11.269Z,26.6
2023-06-02T15:58:41.420Z,26.6
2023-06-02T16:00:11.587Z,26.6
2023-06-02T16:01:41.849Z,26.6
2023-06-02T16:03:11.943Z,26.6
2023-06-02T16:04:42.074Z,26.6
2023-06-02T16:06:12.251Z,26.6
2023-06-02T16:07:42.457Z,26.5
2023-06-02T16:09:12.581Z,26.4
2023-06-02T16:10:42.755Z,26.5
2023-06-02T16:12:12.944Z,26.4
2023-06-02T16:13:43.100Z,26.5
2023-06-02T17:55:38.585Z,23.5
2023-06-02T17:56:32.918Z,23.6
2023-06-02T17:58:03.071Z,23.7
2023-06-02T17:59:33.248Z,23.9
2023-06-02T18:01:03.720Z,24.4
2023-06-02T18:02:36.538Z,24.9
2023-06-02T18:04:06.730Z,25.3
2023-06-02T18:05:36.847Z,25.6
2023-06-02T18:07:06.999Z,25.8
2023-06-02T18:08:37.169Z,26
2023-06-02T18:10:07.361Z,26.1
2023-06-02T18:11:37.506Z,26.2
2023-06-02T18:13:07.674Z,26.2
2023-06-02T18:14:37.850Z,26.1
2023-06-02T18:16:08.014Z,25.8
2023-06-02T18:17:38.196Z,25.5
2023-06-02T18:19:08.343Z,25.5
2023-06-02T18:20:38.487Z,25.3
2023-06-02T18:22:08.714Z,25.2
2023-06-02T18:23:38.824Z,25.2
2023-06-02T18:25:08.985Z,25.1
2023-06-02T18:26:39.142Z,25.1
2023-06-02T18:28:09.318Z,25
2023-06-02T18:29:39.476Z,24.9
2023-06-02T18:31:09.636Z,24.9
2023-06-02T18:32:39.843Z,24.9
2023-06-02T18:34:09.976Z,24.9
2023-06-02T18:35:40.143Z,24.7
2023-06-02T18:37:10.319Z,24.7
2023-06-02T18:38:40.484Z,24.9
2023-06-02T18:40:10.653Z,25.1
2023-06-02T18:41:40.823Z,25.2
2023-06-02T18:43:10.982Z,25.4
2023-06-02T18:44:41.144Z,25.3
2023-06-02T18:46:11.353Z,25.4
2023-06-02T18:47:41.518Z,25.4
2023-06-02T18:49:11.641Z,25.5
2023-06-02T18:50:41.835Z,25.5
2023-06-02T18:52:11.990Z,25.5
2023-06-02T18:53:42.147Z,25.5
2023-06-02T18:55:12.355Z,25.5
2023-06-02T18:56:42.529Z,25.5
2023-06-02T18:58:12.681Z,25.5
2023-06-02T18:59:42.845Z,25.5
2023-06-02T19:01:13.036Z,25.4
2023-06-02T19:02:43.238Z,25.3
2023-06-02T19:04:13.362Z,25.4
2023-06-02T19:05:43.506Z,25.4
2023-06-02T19:07:13.720Z,25.4
2023-06-02T19:08:43.871Z,25.4
2023-06-02T19:10:14.053Z,25.4
2023-06-02T19:11:44.205Z,25.3
2023-06-02T19:13:14.371Z,25.3
2023-06-02T19:14:44.579Z,25.3
2023-06-02T19:16:14.761Z,25.3
2023-06-02T19:17:44.928Z,25.2
2023-06-02T19:19:15.070Z,25.2
2023-06-02T19:20:45.252Z,25.2
2023-06-02T19:22:15.408Z,25.2
2023-06-02T19:23:45.558Z,25.2
2023-06-02T19:25:15.809Z,25.2
2023-06-02T19:26:45.916Z,25.2
2023-06-02T19:28:16.073Z,25.2
2023-06-02T19:29:46.225Z,25.1
2023-06-02T19:31:16.442Z,25.1
2023-06-02T19:32:46.586Z,25.1
2023-06-02T19:34:16.719Z,25.1
2023-06-02T19:35:46.888Z,25.2
2023-06-02T19:37:17.095Z,25.3
2023-06-02T19:38:47.249Z,25.3
2023-06-02T19:40:17.427Z,25.4
2023-06-02T19:41:47.586Z,25.4
2023-06-02T19:43:17.741Z,25.5
2023-06-02T19:44:47.920Z,25.4
2023-06-02T19:46:18.102Z,25.5
2023-06-02T19:47:48.241Z,25.5
2023-06-02T19:49:18.421Z,25.5
2023-06-02T19:50:48.575Z,25.5
2023-06-02T19:52:18.728Z,25.5
2023-06-02T19:53:48.908Z,25.5
2023-06-02T19:55:19.071Z,25.5
2023-06-02T19:56:49.226Z,25.5
2023-06-02T19:58:19.401Z,25.5
2023-06-02T19:59:49.555Z,25.5
